createdAt,value
2022-11-10T00:07:50.826Z,100894.84
2022-11-10T00:18:12.703Z,100899.06
2022-11-10T00:28:34.422Z,100914.81
2022-11-10T00:38:56.260Z,100928.91
2022-11-10T00:49:17.996Z,100926.56
2022-11-10T00:59:39.780Z,100935.31
2022-11-10T01:10:01.723Z,100946.53
2022-11-10T01:20:24.796Z,100970.66
2022-11-10T01:30:46.580Z,100978.66
2022-11-10T01:41:10.530Z,100987.25
2022-11-10T01:51:38.283Z,100992.41
2022-11-10T02:02:10.400Z,101012.09
2022-11-10T02:12:38.761Z,101023.72
2022-11-10T02:23:12.553Z,101024.75
2022-11-10T02:33:34.367Z,101017.16
2022-11-10T02:43:56.991Z,101024.47
2022-11-10T02:54:18.888Z,101054.03
2022-11-10T03:04:40.976Z,101071.81
2022-11-10T03:15:02.784Z,101067.25
2022-11-10T03:25:24.618Z,101088.44
2022-11-10T03:35:46.456Z,101096.22
2022-11-10T03:46:08.826Z,101110.81
2022-11-10T03:56:30.641Z,101115.53
2022-11-10T04:07:10.798Z,101129.34
2022-11-10T04:17:32.643Z,101146.97
2022-11-10T04:27:54.424Z,101168.25
2022-11-10T04:38:16.213Z,101195.53
2022-11-10T04:48:38.006Z,101185.66
2022-11-10T04:58:59.872Z,101198.75
2022-11-10T05:09:21.663Z,101206.41
2022-11-10T05:19:43.460Z,101217.06
2022-11-10T05:30:05.890Z,101210.19
2022-11-10T05:40:28.178Z,101217.13
2022-11-10T05:50:49.976Z,101204.28
2022-11-10T06:01:11.794Z,101237.50
2022-11-10T06:11:33.604Z,101266.63
2022-11-10T06:22:01.352Z,101287.31
2022-11-10T06:32:25.599Z,101313.31
2022-11-10T06:42:47.376Z,101331.66
2022-11-10T06:53:09.500Z,101320.69
2022-11-10T07:03:31.340Z,101330.94
2022-11-10T07:13:53.148Z,101351.78
2022-11-10T07:24:14.941Z,101372.09
2022-11-10T07:34:36.715Z,101414.16
2022-11-10T07:44:58.539Z,101447.25
2022-11-10T07:55:20.336Z,101427.59
2022-11-10T08:05:42.619Z,101436.63
2022-11-10T08:16:04.796Z,101451.31
2022-11-10T08:26:26.634Z,101466.19
2022-11-10T08:36:48.753Z,101458.91
2022-11-10T08:47:10.565Z,101478.81
2022-11-10T08:57:32.511Z,101471.34
2022-11-10T09:07:54.315Z,101475.59
2022-11-10T09:18:17.230Z,101510.44
2022-11-10T09:28:39.040Z,101506.75
2022-11-10T09:39:00.737Z,101521.06
2022-11-10T09:49:33.264Z,101537.44
2022-11-10T09:59:55.224Z,101549.91
2022-11-10T10:10:38.058Z,101565.56
2022-11-10T10:21:21.899Z,101573.06
2022-11-10T10:31:48.024Z,101573.16
2022-11-10T10:42:41.165Z,101570.16
2022-11-10T10:53:15.988Z,101586.97
2022-11-10T11:03:39.954Z,101611.91
2022-11-10T11:14:24.719Z,101628.06
2022-11-10T11:24:55.689Z,101634.16
2022-11-10T11:35:26.769Z,101634.72
2022-11-10T11:46:20.673Z,101641.84
2022-11-10T11:56:47.373Z,101665.78
2022-11-10T12:07:17.660Z,101674.00
2022-11-10T12:18:05.689Z,101674.16
2022-11-10T12:28:34.938Z,101684.97
2022-11-10T12:39:14.895Z,101687.75
2022-11-10T12:49:39.032Z,101694.59
2022-11-10T13:00:02.813Z,101711.09
2022-11-10T13:10:27.517Z,101718.88
2022-11-10T13:20:54.244Z,101717.50
2022-11-10T13:31:40.101Z,101709.94
2022-11-10T13:42:07.753Z,101705.31
2022-11-10T13:52:52.081Z,101703.44
2022-11-10T14:03:45.004Z,101696.69
2022-11-10T14:14:21.252Z,101711.56
2022-11-10T14:24:53.816Z,101703.63
2022-11-10T14:35:22.264Z,101732.09
2022-11-10T14:45:51.746Z,101734.72
2022-11-10T14:56:17.203Z,101755.56
2022-11-10T15:06:44.414Z,101756.56
2022-11-10T15:17:11.267Z,101772.63
2022-11-10T15:27:33.352Z,101793.06
2022-11-10T15:38:25.726Z,101847.19
2022-11-10T15:48:50.426Z,101815.16
2022-11-10T15:59:12.650Z,101807.38
2022-11-10T16:09:34.492Z,101825.84
2022-11-10T16:19:56.322Z,101825.44
2022-11-10T16:30:18.324Z,101851.19
2022-11-10T16:40:40.129Z,101837.50
2022-11-10T16:51:02.432Z,101844.72
2022-11-10T17:01:28.033Z,101845.59
2022-11-10T17:11:49.894Z,101863.03
2022-11-10T17:22:16.656Z,101862.88
2022-11-10T17:33:03.659Z,101852.56
2022-11-10T17:43:21.383Z,101865.47
2022-11-10T17:53:43.663Z,101870.72
2022-11-10T18:04:05.527Z,101888.50
2022-11-10T18:14:27.460Z,101890.69
2022-11-10T18:24:49.283Z,101863.38
2022-11-10T18:35:11.172Z,101867.22
2022-11-10T18:45:33.012Z,101892.34
2022-11-10T18:55:56.002Z,101889.06
2022-11-10T19:06:18.353Z,101882.16
2022-11-10T19:16:39.854Z,101884.66
2022-11-10T19:27:01.418Z,101900.75
2022-11-10T19:37:22.942Z,101924.34
2022-11-10T19:47:44.443Z,101926.72
2022-11-10T19:58:05.913Z,101929.94
2022-11-10T20:08:28.242Z,101949.38
2022-11-10T20:18:49.709Z,101960.66
2022-11-10T20:29:11.171Z,101958.25
2022-11-10T20:39:32.703Z,101958.19
2022-11-10T20:49:54.185Z,101955.72
2022-11-10T21:00:16.189Z,101959.63
2022-11-10T21:10:37.653Z,101978.25
2022-11-10T21:20:59.410Z,101983.47
2022-11-10T21:31:23.136Z,101996.38
2022-11-10T21:41:44.621Z,102012.31
2022-11-10T21:52:06.084Z,102029.72
2022-11-10T22:02:27.656Z,102018.53
2022-11-10T22:13:07.783Z,102016.28
2022-11-10T22:23:47.973Z,102042.06
2022-11-10T22:34:09.500Z,102011.50
2022-11-10T22:44:31.104Z,102024.53
2022-11-10T22:54:52.568Z,102036.59
2022-11-10T23:05:14.169Z,102033.22
2022-11-10T23:15:35.627Z,102045.13
2022-11-10T23:26:18.413Z,102068.38
2022-11-10T23:36:39.999Z,102070.41
2022-11-10T23:47:01.547Z,102078.31
2022-11-10T23:57:23.013Z,102097.47
